createdAt,value
2019-05-07T00:00:12.636Z,1.93
2019-05-07T00:05:18.401Z,2.17
2019-05-07T00:10:24.973Z,2.00
2019-05-07T00:15:29.937Z,2.20
2019-05-07T00:20:34.465Z,1.97
2019-05-07T00:25:42.162Z,2.30
2019-05-07T00:30:46.809Z,2.00
2019-05-07T00:36:03.472Z,2.50
2019-05-07T00:41:29.161Z,1.98
2019-05-07T00:46:33.810Z,2.20
2019-05-07T00:51:38.350Z,2.43
2019-05-07T00:56:43.066Z,2.50
2019-05-07T01:01:47.717Z,2.07
2019-05-07T01:06:53.183Z,2.33
2019-05-07T01:11:57.914Z,1.97
2019-05-07T01:17:02.627Z,2.37
2019-05-07T01:22:07.019Z,2.67
2019-05-07T01:27:12.916Z,2.15
2019-05-07T01:32:36.761Z,2.10
2019-05-07T01:37:42.184Z,2.30
2019-05-07T01:42:46.729Z,2.02
2019-05-07T01:47:53.066Z,2.47
2019-05-07T01:52:57.652Z,2.57
2019-05-07T01:58:04.559Z,2.47
2019-05-07T02:03:14.959Z,2.83
2019-05-07T02:08:38.065Z,2.27
2019-05-07T02:13:42.341Z,2.90
2019-05-07T02:18:47.061Z,2.37
2019-05-07T02:23:52.378Z,2.42
2019-05-07T02:28:56.883Z,2.87
2019-05-07T02:34:02.883Z,2.50
2019-05-07T02:39:29.158Z,2.50
2019-05-07T02:44:38.078Z,2.63
2019-05-07T02:49:53.636Z,2.20
2019-05-07T02:55:03.929Z,2.67
2019-05-07T03:00:08.979Z,2.77
2019-05-07T03:05:13.984Z,3.13
2019-05-07T03:10:19.402Z,2.83
2019-05-07T03:15:24.433Z,2.70
2019-05-07T03:20:35.184Z,2.70
2019-05-07T03:26:00.012Z,2.45
2019-05-07T03:31:16.870Z,3.00
2019-05-07T03:36:37.790Z,2.47
2019-05-07T03:41:43.317Z,2.80
2019-05-07T03:47:01.133Z,2.53
2019-05-07T03:51:56.414Z,2.80
2019-05-07T03:57:10.286Z,2.87
2019-05-07T04:02:08.043Z,2.85
2019-05-07T04:07:14.153Z,2.85
2019-05-07T04:12:18.806Z,2.60
2019-05-07T04:17:27.040Z,2.83
2019-05-07T04:22:34.292Z,2.60
2019-05-07T04:27:56.982Z,2.92
2019-05-07T04:33:03.565Z,2.70
2019-05-07T04:38:09.579Z,3.05
2019-05-07T04:43:14.225Z,2.57
2019-05-07T04:48:23.042Z,3.07
2019-05-07T04:53:26.092Z,2.70
2019-05-07T04:58:33.870Z,2.83
2019-05-07T05:03:39.365Z,3.07
2019-05-07T05:08:45.014Z,2.80
2019-05-07T05:13:49.323Z,3.22
2019-05-07T05:18:55.571Z,2.65
2019-05-07T05:24:04.363Z,3.10
2019-05-07T05:29:08.643Z,2.52
2019-05-07T05:34:13.285Z,3.13
2019-05-07T05:39:19.327Z,3.23
2019-05-07T05:44:32.057Z,3.07
2019-05-07T05:49:37.807Z,3.33
2019-05-07T05:54:54.444Z,4.58
2019-05-07T06:00:32.836Z,4.30
2019-05-07T06:05:55.269Z,4.40
2019-05-07T06:11:14.418Z,3.97
2019-05-07T06:16:23.474Z,4.50
2019-05-07T06:21:46.022Z,4.13
2019-05-07T06:26:52.367Z,4.00
2019-05-07T06:32:03.213Z,4.47
2019-05-07T06:37:08.788Z,4.50
2019-05-07T06:42:33.204Z,4.17
2019-05-07T06:47:37.781Z,4.40
2019-05-07T06:52:42.620Z,4.13
2019-05-07T06:57:47.443Z,3.57
2019-05-07T07:02:56.246Z,3.57
2019-05-07T07:08:07.806Z,4.67
2019-05-07T07:13:12.361Z,5.23
2019-05-07T07:18:17.893Z,4.60
2019-05-07T07:23:22.769Z,4.53
2019-05-07T07:28:28.471Z,4.90
2019-05-07T07:33:35.770Z,5.80
2019-05-07T07:38:42.093Z,4.93
2019-05-07T07:43:46.789Z,5.50
2019-05-07T07:49:06.841Z,4.40
2019-05-07T07:54:02.515Z,6.17
2019-05-07T07:59:38.654Z,5.13
2019-05-07T08:04:43.267Z,4.67
2019-05-07T08:09:48.427Z,4.27
2019-05-07T08:14:53.000Z,5.53
2019-05-07T08:19:57.806Z,5.73
2019-05-07T08:25:04.369Z,5.53
2019-05-07T08:30:11.859Z,3.20
2019-05-07T08:35:44.953Z,5.17
2019-05-07T08:40:52.123Z,3.80
2019-05-07T08:46:16.351Z,4.53
2019-05-07T08:51:22.347Z,5.57
2019-05-07T08:56:27.073Z,5.33
2019-05-07T09:01:32.523Z,4.77
2019-05-07T09:06:37.268Z,4.60
2019-05-07T09:11:43.426Z,5.43
2019-05-07T09:16:47.991Z,5.30
2019-05-07T09:21:53.236Z,3.47
2019-05-07T09:27:04.150Z,4.47
2019-05-07T09:32:23.675Z,4.20
2019-05-07T09:37:28.850Z,5.37
2019-05-07T09:42:34.809Z,5.00
2019-05-07T09:47:41.609Z,4.87
2019-05-07T09:52:46.752Z,6.07
2019-05-07T09:57:52.751Z,6.37
2019-05-07T10:02:58.962Z,5.70
2019-05-07T10:08:03.586Z,5.67
2019-05-07T10:13:22.492Z,6.63
2019-05-07T10:18:27.122Z,6.07
2019-05-07T10:23:31.736Z,5.97
2019-05-07T10:28:36.300Z,4.93
2019-05-07T10:33:42.288Z,4.93
2019-05-07T10:38:46.833Z,6.03
2019-05-07T10:43:51.989Z,5.43
2019-05-07T10:49:05.176Z,4.90
2019-05-07T10:54:10.034Z,5.27
2019-05-07T10:59:14.729Z,4.60
2019-05-07T11:04:19.353Z,4.27
2019-05-07T11:09:24.053Z,3.83
2019-05-07T11:14:28.713Z,4.60
2019-05-07T11:19:33.527Z,4.90
2019-05-07T11:24:38.070Z,5.33
2019-05-07T11:29:43.477Z,4.70
2019-05-07T11:34:49.473Z,4.63
2019-05-07T11:39:54.081Z,4.97
2019-05-07T11:44:58.706Z,4.27
2019-05-07T11:50:35.133Z,3.40
2019-05-07T11:55:41.937Z,4.03
2019-05-07T12:01:06.338Z,3.43
2019-05-07T12:06:12.439Z,3.57
2019-05-07T12:11:17.322Z,3.73
2019-05-07T12:16:22.369Z,4.90
2019-05-07T12:21:27.972Z,3.50
2019-05-07T12:26:34.381Z,4.67
2019-05-07T12:31:58.138Z,3.83
2019-05-07T12:37:03.877Z,3.10
2019-05-07T12:42:08.894Z,3.97
2019-05-07T12:47:13.433Z,3.70
2019-05-07T12:52:29.179Z,3.50
2019-05-07T12:57:33.726Z,3.53
2019-05-07T13:02:44.419Z,3.30
2019-05-07T13:07:52.054Z,2.80
2019-05-07T13:12:58.418Z,3.07
2019-05-07T13:18:02.983Z,2.47
2019-05-07T13:23:07.928Z,4.40
2019-05-07T13:28:12.579Z,2.90
2019-05-07T13:33:17.150Z,2.80
2019-05-07T13:38:43.309Z,3.53
2019-05-07T13:44:22.942Z,3.33
2019-05-07T13:49:27.605Z,4.00
2019-05-07T13:54:32.541Z,3.20
2019-05-07T13:59:37.130Z,3.47
2019-05-07T14:04:42.843Z,3.53
2019-05-07T14:09:47.394Z,2.70
2019-05-07T14:14:53.306Z,2.90
2019-05-07T14:19:58.981Z,3.87
2019-05-07T14:25:04.973Z,4.07
2019-05-07T14:30:12.781Z,2.63
2019-05-07T14:35:37.825Z,4.10
2019-05-07T14:40:42.771Z,3.10
2019-05-07T14:45:47.386Z,3.67
2019-05-07T14:50:53.086Z,3.50
2019-05-07T14:55:59.353Z,3.10
2019-05-07T15:01:04.014Z,3.47
2019-05-07T15:06:09.856Z,4.33
2019-05-07T15:11:14.422Z,3.93
2019-05-07T15:16:22.402Z,3.70
2019-05-07T15:21:26.494Z,3.43
2019-05-07T15:26:32.785Z,3.17
2019-05-07T15:31:55.210Z,2.80
2019-05-07T15:37:01.685Z,3.50
2019-05-07T15:42:06.397Z,3.80
2019-05-07T15:47:18.248Z,3.17
2019-05-07T15:52:56.825Z,3.00
2019-05-07T15:57:52.148Z,3.57
2019-05-07T16:03:02.885Z,3.77
2019-05-07T16:08:09.368Z,2.90
2019-05-07T16:13:16.938Z,3.27
2019-05-07T16:18:26.481Z,2.67
2019-05-07T16:23:32.609Z,2.50
2019-05-07T16:28:38.855Z,3.57
2019-05-07T16:33:44.189Z,3.20
2019-05-07T16:38:48.852Z,2.83
2019-05-07T16:43:53.950Z,4.07
2019-05-07T16:48:58.574Z,3.53
2019-05-07T16:54:03.623Z,3.83
2019-05-07T16:59:08.557Z,2.63
2019-05-07T17:04:13.962Z,2.53
2019-05-07T17:09:18.634Z,3.40
2019-05-07T17:14:23.910Z,4.23
2019-05-07T17:19:31.850Z,3.17
2019-05-07T17:24:36.756Z,2.90
2019-05-07T17:29:42.956Z,2.80
2019-05-07T17:34:48.480Z,2.87
2019-05-07T17:39:53.781Z,3.00
2019-05-07T17:44:59.770Z,2.90
2019-05-07T17:50:05.954Z,3.20
2019-05-07T17:55:13.048Z,2.70
2019-05-07T18:00:17.939Z,3.07
2019-05-07T18:05:23.797Z,2.63
2019-05-07T18:10:28.427Z,2.60
2019-05-07T18:15:36.223Z,2.43
2019-05-07T18:20:42.217Z,2.37
2019-05-07T18:25:49.810Z,2.37
2019-05-07T18:30:54.329Z,3.07
2019-05-07T18:35:58.943Z,2.33
2019-05-07T18:41:03.590Z,2.80
2019-05-07T18:46:12.819Z,2.20
2019-05-07T18:51:17.315Z,2.40
2019-05-07T18:56:23.219Z,2.20
2019-05-07T19:01:29.165Z,2.43
2019-05-07T19:06:35.270Z,2.40
2019-05-07T19:11:40.191Z,2.37
2019-05-07T19:16:46.486Z,2.60
2019-05-07T19:21:53.047Z,2.23
2019-05-07T19:26:58.899Z,2.20
2019-05-07T19:32:05.354Z,2.40
2019-05-07T19:37:09.941Z,2.37
2019-05-07T19:42:15.402Z,3.00
2019-05-07T19:47:23.624Z,2.60
2019-05-07T19:52:29.525Z,2.60
2019-05-07T19:57:42.640Z,2.50
2019-05-07T20:02:52.660Z,2.20
2019-05-07T20:08:01.946Z,2.97
2019-05-07T20:13:04.817Z,2.80
2019-05-07T20:18:12.452Z,2.80
2019-05-07T20:23:19.674Z,2.30
2019-05-07T20:28:24.513Z,2.57
2019-05-07T20:33:29.079Z,2.67
2019-05-07T20:38:34.825Z,2.73
2019-05-07T20:43:39.368Z,2.33
2019-05-07T20:48:46.692Z,2.60
2019-05-07T20:54:07.362Z,2.47
2019-05-07T20:59:12.576Z,2.90
2019-05-07T21:04:17.369Z,2.53
2019-05-07T21:09:22.196Z,2.33
2019-05-07T21:14:26.882Z,2.70
2019-05-07T21:19:33.117Z,2.60
2019-05-07T21:24:38.437Z,2.80
2019-05-07T21:29:42.998Z,2.50
2019-05-07T21:34:47.658Z,2.57
2019-05-07T21:39:53.143Z,2.63
2019-05-07T21:44:58.351Z,2.57
2019-05-07T21:50:03.074Z,2.27
2019-05-07T21:55:15.167Z,2.60
2019-05-07T22:00:37.838Z,2.30
2019-05-07T22:05:44.454Z,2.87
2019-05-07T22:10:49.121Z,2.57
2019-05-07T22:15:55.144Z,2.80
2019-05-07T22:21:02.909Z,2.90
2019-05-07T22:26:20.155Z,2.53
2019-05-07T22:31:33.180Z,2.90
2019-05-07T22:36:38.086Z,2.63
2019-05-07T22:41:45.316Z,2.83
2019-05-07T22:46:49.842Z,3.00
2019-05-07T22:51:55.534Z,2.53
2019-05-07T22:57:08.520Z,2.40
2019-05-07T23:02:14.322Z,2.50
2019-05-07T23:07:18.860Z,2.40
2019-05-07T23:12:23.744Z,2.90
2019-05-07T23:17:28.304Z,2.90
2019-05-07T23:22:34.035Z,3.13
2019-05-07T23:27:38.547Z,3.10
2019-05-07T23:32:44.086Z,2.93
2019-05-07T23:37:48.633Z,2.57
2019-05-07T23:42:55.106Z,2.87
2019-05-07T23:47:59.648Z,3.23
2019-05-07T23:53:05.346Z,3.37
2019-05-07T23:58:13.833Z,3.37
